createdAt,value
2023-04-03T00:00:27.269Z,2.3
2023-04-03T00:02:33.560Z,2.3
2023-04-03T00:04:39.720Z,2.3
2023-04-03T00:11:16.039Z,2.2
2023-04-03T00:13:25.123Z,2.2
2023-04-03T00:15:31.307Z,2.2
2023-04-03T00:17:37.519Z,2.2
2023-04-03T00:19:43.652Z,2.1
2023-04-03T00:21:49.846Z,2.2
2023-04-03T00:23:56.040Z,2.2
2023-04-03T00:32:23.660Z,2
2023-04-03T00:40:48.330Z,1.9
2023-04-03T00:42:57.412Z,1.8
2023-04-03T00:45:03.599Z,1.8
2023-04-03T00:47:09.763Z,1.8
2023-04-03T00:51:22.130Z,1.8
2023-04-03T00:53:28.306Z,1.8
2023-04-03T00:55:34.501Z,1.8
2023-04-03T01:01:55.957Z,1.7
2023-04-03T01:03:00.497Z,1.7
2023-04-03T01:05:06.636Z,1.7
2023-04-03T01:17:46.559Z,1.5
2023-04-03T01:21:58.884Z,1.5
2023-04-03T01:24:05.017Z,1.5
2023-04-03T01:28:20.318Z,1.5
2023-04-03T01:30:26.413Z,1.4
2023-04-03T01:32:32.643Z,1.4
2023-04-03T01:34:38.789Z,1.3
2023-04-03T01:36:44.941Z,1.3
2023-04-03T01:38:51.085Z,1.2
2023-04-03T01:41:00.140Z,1.2
2023-04-03T01:43:06.324Z,1.2
2023-04-03T01:45:12.459Z,1.2
2023-04-03T01:47:18.634Z,1.2
2023-04-03T01:49:24.758Z,1.2
2023-04-03T01:51:30.920Z,1.2
2023-04-03T01:55:46.119Z,1.2
2023-04-03T01:57:52.297Z,1.2
2023-04-03T01:59:58.448Z,1.1
2023-04-03T02:01:02.987Z,1
2023-04-03T02:03:09.151Z,1
2023-04-03T02:05:15.296Z,1
2023-04-03T02:09:30.519Z,1
2023-04-03T02:11:36.610Z,0.9
2023-04-03T02:17:55.066Z,0.8
2023-04-03T02:20:01.220Z,0.8
2023-04-03T02:22:07.352Z,0.8
2023-04-03T02:24:16.477Z,0.8
2023-04-03T02:26:22.543Z,0.8
2023-04-03T02:28:28.647Z,0.8
2023-04-03T02:30:35.043Z,0.8
2023-04-03T02:32:40.976Z,0.7
2023-04-03T02:34:47.097Z,0.7
2023-04-03T02:36:53.216Z,0.7
2023-04-03T02:39:02.248Z,0.7
2023-04-03T02:41:08.417Z,0.7
2023-04-03T02:43:14.540Z,0.7
2023-04-03T02:47:26.825Z,0.6
2023-04-03T02:49:32.955Z,0.6
2023-04-03T02:58:00.413Z,0.6
2023-04-03T02:59:04.914Z,0.6
2023-04-03T03:03:17.172Z,0.6
2023-04-03T03:05:23.466Z,0.6
2023-04-03T03:07:32.303Z,0.5
2023-04-03T03:09:38.475Z,0.5
2023-04-03T03:11:46.138Z,0.5
2023-04-03T03:18:04.530Z,0.6
2023-04-03T03:20:10.636Z,0.5
2023-04-03T03:22:19.643Z,0.5
2023-04-03T03:26:31.901Z,0.5
2023-04-03T03:28:38.021Z,0.4
2023-04-03T03:30:44.128Z,0.4
2023-04-03T03:32:50.280Z,0.4
2023-04-03T03:43:23.730Z,0.2
2023-04-03T03:45:29.833Z,0.2
2023-04-03T03:47:35.997Z,0.2
2023-04-03T03:49:42.069Z,0.1
2023-04-03T03:53:57.184Z,0.1
2023-04-03T03:56:03.294Z,0.1
2023-04-03T04:02:41.610Z,-0.1
2023-04-03T04:13:14.989Z,-0.2
2023-04-03T04:15:21.101Z,-0.2
2023-04-03T04:17:27.212Z,-0.2
2023-04-03T04:19:36.182Z,-0.1
2023-04-03T04:21:42.275Z,-0.2
2023-04-03T04:23:48.693Z,-0.2
2023-04-03T04:25:54.545Z,-0.2
2023-04-03T04:28:00.661Z,-0.2
2023-04-03T04:34:21.871Z,-0.3
2023-04-03T04:36:28.108Z,-0.4
2023-04-03T04:42:46.270Z,-0.5
2023-04-03T04:49:07.421Z,-0.6
2023-04-03T04:51:13.521Z,-0.6
2023-04-03T04:53:19.615Z,-0.6
2023-04-03T04:54:24.087Z,-0.7
2023-04-03T04:56:30.176Z,-0.8
2023-04-03T04:58:36.265Z,-0.6
2023-04-03T05:00:42.352Z,-0.6
2023-04-03T05:04:57.448Z,-0.6
2023-04-03T05:09:09.603Z,-0.5
2023-04-03T05:19:42.938Z,-0.5
2023-04-03T05:26:01.163Z,-0.4
2023-04-03T05:28:07.281Z,-0.4
2023-04-03T05:30:13.359Z,-0.4
2023-04-03T05:32:22.313Z,-0.3
2023-04-03T05:36:34.506Z,-0.3
2023-04-03T05:38:40.590Z,-0.2
2023-04-03T05:40:46.683Z,-0.2
2023-04-03T05:42:52.764Z,-0.2
2023-04-03T05:47:07.857Z,-0.1
2023-04-03T05:52:24.521Z,0.1
2023-04-03T05:56:36.707Z,0.2
2023-04-03T05:58:42.840Z,0.2
2023-04-03T06:00:51.760Z,0.3
2023-04-03T06:02:57.980Z,0.3
2023-04-03T06:05:04.047Z,0.4
2023-04-03T06:07:10.056Z,0.4
2023-04-03T06:11:22.333Z,0.5
2023-04-03T06:13:28.327Z,0.6
2023-04-03T06:15:37.339Z,0.7
2023-04-03T06:19:49.586Z,0.9
2023-04-03T06:21:55.684Z,0.9
2023-04-03T06:24:01.759Z,1
2023-04-03T06:26:07.897Z,1
2023-04-03T06:28:14.013Z,1.1
2023-04-03T06:32:29.257Z,1.4
2023-04-03T06:34:35.279Z,1.5
2023-04-03T06:40:53.658Z,1.7
2023-04-03T06:47:14.989Z,1.8
2023-04-03T06:49:21.139Z,2
2023-04-03T06:50:25.683Z,2.1
2023-04-03T06:52:31.813Z,2.2
2023-04-03T06:56:44.113Z,2.2
2023-04-03T07:00:59.365Z,2.6
2023-04-03T07:03:05.584Z,2.6
2023-04-03T07:05:11.703Z,2.6
2023-04-03T07:11:30.218Z,2.8
2023-04-03T07:13:39.281Z,3
2023-04-03T07:15:45.496Z,3
2023-04-03T07:17:51.737Z,4.5
2023-04-03T07:19:57.840Z,7.9
2023-04-03T07:22:04.065Z,8.4
2023-04-03T07:24:13.131Z,8.7
2023-04-03T07:26:16.458Z,8.5
2023-04-03T07:28:25.536Z,8.9
2023-04-03T07:30:31.756Z,9.3
2023-04-03T07:32:38.006Z,9.1
2023-04-03T07:36:50.408Z,9.4
2023-04-03T07:41:02.875Z,9.5
2023-04-03T07:43:12.045Z,10
2023-04-03T07:45:18.281Z,10
2023-04-03T07:47:24.570Z,9.7
2023-04-03T07:51:56.546Z,10.2
2023-04-03T07:58:18.152Z,10.8
2023-04-03T08:00:24.464Z,11.3
2023-04-03T08:02:30.822Z,11.5
2023-04-03T08:06:46.802Z,13.3
2023-04-03T08:08:49.311Z,12.1
2023-04-03T08:10:58.306Z,11.1
2023-04-03T08:13:04.502Z,11.4
2023-04-03T08:15:10.734Z,11.1
2023-04-03T08:32:03.230Z,8.8
2023-04-03T08:40:30.923Z,8.2
2023-04-03T08:42:37.169Z,8.4
2023-04-03T08:45:47.970Z,7.2
2023-04-03T08:50:00.367Z,6.9
2023-04-03T08:52:06.622Z,6.9
2023-04-03T08:56:21.891Z,7.1
2023-04-03T08:58:28.096Z,7.2
2023-04-03T09:02:40.626Z,7.1
2023-04-03T09:04:46.819Z,7.3
2023-04-03T09:06:53.067Z,7.2
2023-04-03T09:15:31.419Z,8
2023-04-03T09:21:41.127Z,8
2023-04-03T09:23:50.155Z,7.6
2023-04-03T09:25:56.428Z,7.6
2023-04-03T09:28:02.676Z,7.8
2023-04-03T09:30:08.912Z,8
2023-04-03T09:32:15.197Z,8.2
2023-04-03T09:36:27.731Z,8.2
2023-04-03T09:40:43.027Z,7.9
2023-04-03T09:43:53.830Z,8.1
2023-04-03T10:00:46.748Z,8.3
2023-04-03T10:02:53.164Z,8.7
2023-04-03T10:05:09.322Z,8.5
2023-04-03T10:07:08.328Z,9
2023-04-03T10:11:20.821Z,9.1
2023-04-03T10:24:01.209Z,9.1
2023-04-03T10:28:13.703Z,8.7
2023-04-03T10:30:19.954Z,9
2023-04-03T10:36:41.567Z,9.3
2023-04-03T10:38:47.846Z,9.3
2023-04-03T10:42:09.373Z,9.3
2023-04-03T10:44:04.917Z,9.2
2023-04-03T10:46:11.220Z,9.4
2023-04-03T10:50:26.540Z,9.4
2023-04-03T10:52:32.847Z,9.2
2023-04-03T10:54:39.091Z,9.3
2023-04-03T10:56:45.366Z,9.3
2023-04-03T10:58:51.608Z,9.5
2023-04-03T11:00:57.876Z,9.4
2023-04-03T11:03:04.325Z,9.3
2023-04-03T11:05:13.106Z,9.7
2023-04-03T11:07:19.373Z,10
2023-04-03T11:11:31.947Z,9.9
2023-04-03T11:13:38.193Z,10.7
2023-04-03T11:15:44.495Z,10.6
2023-04-03T11:17:50.799Z,10.3
2023-04-03T11:19:59.837Z,11.3
2023-04-03T11:22:06.099Z,11.8
2023-04-03T11:24:12.357Z,11.9
2023-04-03T11:28:24.927Z,12.6
2023-04-03T11:30:31.190Z,12.7
2023-04-03T11:36:52.954Z,13.3
2023-04-03T11:38:59.118Z,12.3
2023-04-03T11:41:25.021Z,13
2023-04-03T11:45:37.949Z,13.5
2023-04-03T11:47:46.718Z,13.2
2023-04-03T11:49:52.947Z,12.7
2023-04-03T11:51:59.227Z,13.8
2023-04-03T11:54:05.556Z,13.3
2023-04-03T11:58:18.068Z,14
2023-04-03T12:00:24.365Z,13.8
2023-04-03T12:02:36.301Z,13.3
2023-04-03T12:04:39.845Z,13.4
2023-04-03T12:06:46.033Z,12.9
2023-04-03T12:08:52.322Z,13.3
2023-04-03T12:13:04.910Z,11.8
2023-04-03T12:17:20.289Z,11.8
2023-04-03T12:21:32.885Z,11.4
2023-04-03T12:23:39.184Z,10.8
2023-04-03T12:25:45.460Z,10.7
2023-04-03T12:27:51.740Z,10.8
2023-04-03T12:29:58.063Z,10.5
2023-04-03T12:32:07.183Z,10.9
2023-04-03T12:36:19.785Z,10.6
2023-04-03T12:37:24.286Z,10.4
2023-04-03T12:39:30.839Z,10.4
2023-04-03T12:41:36.868Z,10.3
2023-04-03T12:43:43.172Z,10.3
2023-04-03T12:45:52.336Z,10.2
2023-04-03T12:47:58.605Z,10.1
2023-04-03T12:50:04.827Z,10.1
2023-04-03T12:52:11.092Z,10
2023-04-03T12:54:17.400Z,10.2
2023-04-03T12:56:26.908Z,10.8
2023-04-03T12:58:29.928Z,10.4
2023-04-03T13:00:39.037Z,10.9
2023-04-03T13:02:45.375Z,10.5
2023-04-03T13:04:51.597Z,10.3
2023-04-03T13:06:57.886Z,10.5
2023-04-03T13:09:04.148Z,10.3
2023-04-03T13:11:10.439Z,10.4
2023-04-03T13:13:16.697Z,10.3
2023-04-03T13:15:25.847Z,10.4
2023-04-03T13:17:32.143Z,10.5
2023-04-03T13:19:38.333Z,10.4
2023-04-03T13:30:12.565Z,10.1
2023-04-03T13:32:18.838Z,10.2
2023-04-03T13:34:25.124Z,10.4
2023-04-03T13:35:29.665Z,10.4
2023-04-03T13:39:43.247Z,10.3
2023-04-03T13:41:48.514Z,10.5
2023-04-03T13:44:03.361Z,10.4
2023-04-03T13:46:04.022Z,10.5
2023-04-03T13:48:22.056Z,10.3
2023-04-03T13:50:16.475Z,10.3
2023-04-03T13:52:22.741Z,10.6
2023-04-03T13:54:29.002Z,10.7
2023-04-03T13:56:35.303Z,10.6
2023-04-03T13:58:44.371Z,10.2
2023-04-03T14:00:50.700Z,10.4
2023-04-03T14:02:56.951Z,10.1
2023-04-03T14:05:03.237Z,10.2
2023-04-03T14:07:09.506Z,10.1
2023-04-03T14:09:15.791Z,10.6
2023-04-03T14:11:22.095Z,10.3
2023-04-03T14:13:31.176Z,10.3
2023-04-03T14:15:37.579Z,10.2
2023-04-03T14:17:43.762Z,10
2023-04-03T14:19:50.018Z,10.1
2023-04-03T14:21:56.304Z,10
2023-04-03T14:24:02.590Z,10
2023-04-03T14:26:08.861Z,10.2
2023-04-03T14:30:24.246Z,10.4
2023-04-03T14:33:35.078Z,10.1
2023-04-03T14:35:41.361Z,9.9
2023-04-03T14:37:47.656Z,10
2023-04-03T14:39:53.916Z,10.3
2023-04-03T14:42:03.029Z,10.3
2023-04-03T14:44:09.283Z,10.4
2023-04-03T14:46:15.643Z,10.4
2023-04-03T14:48:21.962Z,10.2
2023-04-03T14:50:28.137Z,10.3
2023-04-03T14:54:40.714Z,11.3
2023-04-03T14:56:49.792Z,10.8
2023-04-03T15:01:02.357Z,10.8
2023-04-03T15:03:08.800Z,11.6
2023-04-03T15:05:14.959Z,12
2023-04-03T15:07:21.215Z,12.1
2023-04-03T15:17:55.799Z,12
2023-04-03T15:26:25.201Z,13.2
2023-04-03T15:28:31.491Z,13.5
2023-04-03T15:30:38.017Z,12.4
2023-04-03T15:33:01.929Z,12.9
2023-04-03T15:35:07.863Z,13
2023-04-03T15:37:14.133Z,13.5
2023-04-03T15:43:36.257Z,13.8
2023-04-03T15:45:42.585Z,14.1
2023-04-03T15:47:48.929Z,13.6
2023-04-03T15:54:10.621Z,12.4
2023-04-03T16:00:29.478Z,12.6
2023-04-03T16:02:35.844Z,12.1
2023-04-03T16:04:42.096Z,12.6
2023-04-03T16:06:48.323Z,13.4
2023-04-03T16:08:57.721Z,13.6
2023-04-03T16:11:03.735Z,13.4
2023-04-03T16:13:10.027Z,13.3
2023-04-03T16:15:16.340Z,12
2023-04-03T16:17:22.614Z,12.7
2023-04-03T16:19:28.928Z,12.5
2023-04-03T16:21:35.205Z,11.9
2023-04-03T16:23:44.314Z,13
2023-04-03T16:25:50.635Z,12.4
2023-04-03T16:27:56.916Z,11.6
2023-04-03T16:29:01.545Z,12
2023-04-03T16:35:20.378Z,11.7
2023-04-03T16:37:30.540Z,12.4
2023-04-03T16:39:35.756Z,12.5
2023-04-03T16:41:42.061Z,12.8
2023-04-03T16:43:48.336Z,12.1
2023-04-03T16:45:54.625Z,12
2023-04-03T16:48:00.995Z,11.1
2023-04-03T16:50:07.323Z,10.8
2023-04-03T16:52:16.347Z,12.2
2023-04-03T16:54:22.613Z,11.8
2023-04-03T16:56:28.902Z,10.9
2023-04-03T16:58:35.208Z,11.6
2023-04-03T17:00:41.522Z,11.8
2023-04-03T17:02:47.815Z,12.1
2023-04-03T17:04:54.079Z,12.7
2023-04-03T17:09:09.476Z,12.6
2023-04-03T17:11:15.753Z,12.3
2023-04-03T17:23:56.321Z,11.1
2023-04-03T17:26:02.664Z,9.6
2023-04-03T17:27:07.190Z,8.8
2023-04-03T17:29:13.482Z,8.5
2023-04-03T17:31:19.763Z,8.2
2023-04-03T17:33:26.054Z,8.1
2023-04-03T17:35:35.179Z,7.9
2023-04-03T17:37:41.437Z,7.9
2023-04-03T17:41:54.013Z,7.8
2023-04-03T17:48:12.870Z,7.5
2023-04-03T17:50:21.884Z,7.4
2023-04-03T17:52:28.139Z,7.3
2023-04-03T17:58:47.008Z,7
2023-04-03T18:00:53.220Z,7
2023-04-03T18:02:59.517Z,6.8
2023-04-03T18:17:46.112Z,6.4
2023-04-03T18:25:12.030Z,6.2
2023-04-03T18:35:46.145Z,5.9
2023-04-03T18:37:52.366Z,5.9
2023-04-03T18:42:04.794Z,5.7
2023-04-03T18:44:11.023Z,5.7
2023-04-03T18:48:26.326Z,5.5
2023-04-03T18:50:32.544Z,5.5
2023-04-03T18:52:38.850Z,5.5
2023-04-03T18:54:45.160Z,5.4
2023-04-03T18:58:57.695Z,5.2
2023-04-03T19:03:13.086Z,5.1
2023-04-03T19:05:19.251Z,5.1
2023-04-03T19:07:25.465Z,5
2023-04-03T19:09:31.752Z,4.9
2023-04-03T19:11:38.038Z,4.9
2023-04-03T19:13:46.934Z,4.9
2023-04-03T19:15:50.519Z,4.8
2023-04-03T19:17:59.619Z,4.7
2023-04-03T19:20:05.826Z,4.7
2023-04-03T19:22:12.387Z,4.6
2023-04-03T19:26:44.068Z,4.7
2023-04-03T19:33:05.895Z,4.6
2023-04-03T19:37:18.341Z,4.5
2023-04-03T19:41:30.920Z,4.4
2023-04-03T19:43:37.158Z,4.4
2023-04-03T19:45:46.365Z,4.3
2023-04-03T19:52:05.137Z,4.1
2023-04-03T19:54:11.382Z,4.1
2023-04-03T19:56:17.665Z,4.1
2023-04-03T20:06:51.839Z,3.9
2023-04-03T20:08:58.117Z,3.9
2023-04-03T20:11:04.346Z,3.9
2023-04-03T20:15:19.741Z,3.8
2023-04-03T20:17:26.063Z,3.7
2023-04-03T20:19:32.255Z,3.7
2023-04-03T20:20:36.887Z,3.7
2023-04-03T20:29:04.681Z,3.4
2023-04-03T20:33:17.160Z,3.4
2023-04-03T20:37:29.626Z,3.3
2023-04-03T20:43:51.223Z,3.3
2023-04-03T20:48:03.711Z,3.3
2023-04-03T20:54:22.351Z,3.2
2023-04-03T20:56:28.571Z,3.2
2023-04-03T20:58:37.697Z,3.2
2023-04-03T21:00:44.040Z,3.1
2023-04-03T21:02:50.241Z,3.1
2023-04-03T21:09:08.780Z,3
2023-04-03T21:11:15.004Z,3
2023-04-03T21:15:30.343Z,2.9
2023-04-03T21:18:41.114Z,3
2023-04-03T21:20:47.553Z,3
2023-04-03T21:22:53.552Z,2.9
2023-04-03T21:39:47.708Z,2.6
2023-04-03T21:50:21.627Z,2.6
2023-04-03T21:54:34.026Z,2.5
2023-04-03T21:58:49.410Z,2.4
2023-04-03T22:00:55.550Z,2.4
2023-04-03T22:03:10.079Z,2.3
2023-04-03T22:05:08.048Z,2.3
2023-04-03T22:07:14.122Z,2.3
2023-04-03T22:09:20.360Z,2.2
2023-04-03T22:11:29.443Z,2.1
2023-04-03T22:15:41.812Z,2.1
2023-04-03T22:16:46.382Z,2
2023-04-03T22:20:58.735Z,2
2023-04-03T22:23:04.942Z,1.9
2023-04-03T22:29:26.407Z,1.8
2023-04-03T22:31:32.565Z,1.8
2023-04-03T22:33:38.775Z,1.8
2023-04-03T22:35:44.935Z,1.8
2023-04-03T22:37:51.107Z,1.7
2023-04-03T22:40:00.170Z,1.7
2023-04-03T22:42:06.366Z,1.6
2023-04-03T22:44:12.528Z,1.7
2023-04-03T22:46:18.746Z,1.6
2023-04-03T22:48:24.871Z,1.6
2023-04-03T22:50:31.051Z,1.6
2023-04-03T22:52:37.232Z,1.6
2023-04-03T22:54:46.290Z,1.4
2023-04-03T22:56:54.777Z,1.4
2023-04-03T22:58:58.642Z,1.4
2023-04-03T23:01:07.957Z,1.3
2023-04-03T23:03:11.392Z,1.3
2023-04-03T23:05:17.172Z,1.2
2023-04-03T23:11:38.562Z,1.3
2023-04-03T23:20:17.200Z,1.3
2023-04-03T23:28:44.728Z,1.4
2023-04-03T23:32:57.089Z,1.3
2023-04-03T23:37:12.284Z,1.2
2023-04-03T23:39:18.441Z,1.3
2023-04-03T23:41:24.600Z,1.3
2023-04-03T23:43:30.751Z,1.3
2023-04-03T23:45:36.903Z,1.3
2023-04-03T23:47:46.234Z,1.2
2023-04-03T23:49:49.229Z,1.2
2023-04-03T23:51:58.279Z,1.1
2023-04-03T23:54:04.428Z,1
2023-04-03T23:56:10.608Z,1
